Terminal Aerodrome Forecast
Issued by NWS

Home | Current Version | Previous Version | Text Only | Print | Product List | Glossary On
Versions: 1 2 3 4 5 6 7 8 9 10 11 12 13 14 15 16 17 18 19 20 21 22 23 24 25 26 27 28 29 30
000
FTUS43 KDTX 291738
TAFPTK
TAF
KPTK 291738Z 2918/3018 19018G27KT P6SM OVC150
      TEMPO 2920/2922 5SM -SHRASN BKN040
     FM292200 20019G29KT 4SM -SHRASN OVC025
     FM300200 24015G24KT 2SM -DZ BR OVC005
     FM300600 23012KT P6SM OVC010
     FM301400 27012KT P6SM BKN025=

USA.gov is the U.S. government's official web portal to all federal, state and local government web resources and services.